Search for airport 
image banner adimage banner adimage banner ad
image banner ad

9D4 - Deck

Located in Myerstown, United States

ICAO - 9D4, IATA -

Data provided by Airmate  

General information

Coordinates: N40°21'8" W76°19'47"
Elevation is 523 feet MSL.
Magnetic variation is -09° East
View others Airports in Pennsylvania

Operational data

Special qualification required
Current time UTC:
Current local time:
METAR: KMUI 182256Z 26007KT 10SM FEW080 FEW200 26/06 A3025 RMK AO2A SLP245 T02610056
TAF: TAF KMUI 181900Z 1819/2001 VRB06KT 9999 FEW055 QNH3029INS TX30/1919Z TN09/1910Z LAST NO AMDS AFT 1905 NEXT 1911
View NOTAMs / SUP AIP / TFR affecting this airport [VIEW]
Communications frequencies: [VIEW]

Runways:

RWY identifierQFULength (ft)Width (ft)SurfaceLDA (ft)
01354°378650ASPH
19174°378650ASPH

Airport contact information

Address: Myerstown United States

Other aviation service providers

Flight schools

Deck Airport

Deck Airport
lrdeck@gmail.com+1(717)866-6529

Satellite view of 9D4